createdAt,value
2022-10-09T00:03:09.731Z,101584.53
2022-10-09T00:07:12.511Z,101584.63
2022-10-09T00:11:17.750Z,101577.72
2022-10-09T00:15:21.969Z,101579.66
2022-10-09T00:19:24.778Z,101580.50
2022-10-09T00:23:27.579Z,101574.00
2022-10-09T00:27:30.326Z,101576.78
2022-10-09T00:31:34.590Z,101579.72
2022-10-09T00:35:39.593Z,101578.84
2022-10-09T00:39:42.294Z,101588.03
2022-10-09T00:43:48.513Z,101576.00
2022-10-09T00:47:55.360Z,101581.13
2022-10-09T00:52:01.250Z,101580.44
2022-10-09T00:56:04.220Z,101596.94
2022-10-09T01:00:10.935Z,101580.66
2022-10-09T01:04:15.660Z,101581.03
2022-10-09T01:08:25.864Z,101578.94
2022-10-09T01:18:03.234Z,101582.44
2022-10-09T01:22:22.783Z,101573.91
2022-10-09T01:26:40.250Z,101568.41
2022-10-09T01:30:44.644Z,101570.38
2022-10-09T01:34:48.918Z,101562.03
2022-10-09T01:38:52.976Z,101560.44
2022-10-09T01:42:56.719Z,101555.44
2022-10-09T01:47:02.097Z,101550.03
2022-10-09T01:51:06.001Z,101555.81
2022-10-09T01:55:26.799Z,101553.41
2022-10-09T01:59:32.080Z,101545.59
2022-10-09T02:03:39.667Z,101539.66
2022-10-09T02:07:42.501Z,101537.16
2022-10-09T02:11:50.368Z,101529.81
2022-10-09T02:15:57.852Z,101533.22
2022-10-09T02:20:07.783Z,101532.00
2022-10-09T02:24:16.971Z,101528.91
2022-10-09T02:28:19.981Z,101532.19
2022-10-09T02:32:24.384Z,101521.97
2022-10-09T02:36:29.793Z,101523.03
2022-10-09T02:40:32.679Z,101525.19
2022-10-09T02:44:35.535Z,101528.81
2022-10-09T02:48:38.265Z,101534.59
2022-10-09T02:52:42.498Z,101518.56
2022-10-09T02:56:45.414Z,101524.41
2022-10-09T03:00:49.754Z,101515.63
2022-10-09T03:04:52.487Z,101509.63
2022-10-09T03:08:57.575Z,101522.16
2022-10-09T03:13:00.496Z,101511.03
2022-10-09T03:17:03.185Z,101514.66
2022-10-09T03:21:07.333Z,101518.72
2022-10-09T03:25:11.515Z,101515.97
2022-10-09T03:29:14.260Z,101519.47
2022-10-09T03:33:17.205Z,101512.31
2022-10-09T03:37:19.935Z,101510.81
2022-10-09T03:41:23.985Z,101502.97
2022-10-09T03:45:27.100Z,101494.78
2022-10-09T03:49:29.983Z,101494.31
2022-10-09T03:53:32.762Z,101484.66
2022-10-09T03:57:36.911Z,101494.38
2022-10-09T04:01:39.821Z,101494.19
2022-10-09T04:05:42.676Z,101503.38
2022-10-09T04:09:45.394Z,101493.78
2022-10-09T04:13:51.739Z,101496.88
2022-10-09T04:17:54.428Z,101504.81
2022-10-09T04:21:57.275Z,101484.34
2022-10-09T04:26:01.225Z,101487.13
2022-10-09T04:30:06.159Z,101477.13
2022-10-09T04:34:08.900Z,101481.44
2022-10-09T04:38:11.694Z,101481.72
2022-10-09T04:42:14.367Z,101482.72
2022-10-09T04:46:18.479Z,101478.31
2022-10-09T04:50:21.424Z,101480.00
2022-10-09T04:54:24.129Z,101472.00
2022-10-09T04:58:26.942Z,101463.25
2022-10-09T05:02:32.137Z,101468.06
2022-10-09T05:06:34.930Z,101462.25
2022-10-09T05:10:37.881Z,101464.97
2022-10-09T05:14:40.648Z,101460.34
2022-10-09T05:18:45.651Z,101464.56
2022-10-09T05:22:49.439Z,101462.88
2022-10-09T05:26:52.774Z,101455.94
2022-10-09T05:30:56.432Z,101460.53
2022-10-09T05:35:00.547Z,101462.00
2022-10-09T05:39:03.321Z,101460.38
2022-10-09T05:43:06.177Z,101460.06
2022-10-09T05:47:08.869Z,101459.53
2022-10-09T05:51:15.163Z,101455.69
2022-10-09T05:55:18.127Z,101463.84
2022-10-09T05:59:20.863Z,101463.03
2022-10-09T06:03:23.551Z,101453.09
2022-10-09T06:07:27.744Z,101466.13
2022-10-09T06:11:32.674Z,101464.34
2022-10-09T06:15:35.442Z,101464.13
2022-10-09T06:19:38.138Z,101461.94
2022-10-09T06:23:42.541Z,101455.69
2022-10-09T06:27:45.362Z,101468.31
2022-10-09T06:31:48.185Z,101465.00
2022-10-09T06:35:50.860Z,101461.81
2022-10-09T06:39:55.053Z,101469.63
2022-10-09T06:43:59.463Z,101463.72
2022-10-09T06:48:02.196Z,101467.72
2022-10-09T06:52:04.929Z,101466.09
2022-10-09T06:56:10.522Z,101466.91
2022-10-09T07:00:14.740Z,101472.53
2022-10-09T07:04:18.886Z,101457.66
2022-10-09T07:08:21.802Z,101465.63
2022-10-09T07:12:26.036Z,101469.19
2022-10-09T07:16:30.856Z,101461.56
2022-10-09T07:20:37.394Z,101464.59
2022-10-09T07:24:40.117Z,101481.34
2022-10-09T07:28:44.742Z,101472.75
2022-10-09T07:32:47.847Z,101472.34
2022-10-09T07:36:50.877Z,101456.63
2022-10-09T07:40:54.264Z,101439.72
2022-10-09T07:44:58.301Z,101428.75
2022-10-09T07:49:01.135Z,101406.97
2022-10-09T07:53:03.880Z,101389.13
2022-10-09T07:57:07.031Z,101385.09
2022-10-09T08:01:15.019Z,101381.78
2022-10-09T08:05:20.565Z,101377.09
2022-10-09T08:09:23.301Z,101371.59
2022-10-09T08:13:27.062Z,101375.78
2022-10-09T08:17:31.201Z,101366.53
2022-10-09T08:21:33.937Z,101370.59
2022-10-09T08:25:37.223Z,101360.06
2022-10-09T08:29:40.460Z,101358.53
2022-10-09T08:33:45.005Z,101358.41
2022-10-09T08:37:47.975Z,101365.59
2022-10-09T08:41:53.936Z,101364.88
2022-10-09T08:45:59.029Z,101364.84
2022-10-09T08:50:12.310Z,101355.56
2022-10-09T08:54:26.228Z,101357.50
2022-10-09T08:58:32.052Z,101360.47
2022-10-09T09:02:50.175Z,101349.97
2022-10-09T09:07:02.591Z,101343.56
2022-10-09T09:11:20.642Z,101332.09
2022-10-09T09:15:42.657Z,101318.38
2022-10-09T09:19:57.395Z,101317.09
2022-10-09T09:24:06.353Z,101321.19
2022-10-09T09:28:16.612Z,101316.25
2022-10-09T09:32:23.168Z,101304.22
2022-10-09T09:36:31.261Z,101305.69
2022-10-09T09:40:38.020Z,101300.78
2022-10-09T09:44:47.271Z,101291.69
2022-10-09T09:48:50.915Z,101300.94
2022-10-09T09:52:55.367Z,101282.31
2022-10-09T09:57:13.784Z,101286.41
2022-10-09T10:01:28.536Z,101274.47
2022-10-09T10:05:37.731Z,101272.91
2022-10-09T10:09:40.462Z,101261.78
2022-10-09T10:13:50.331Z,101266.19
2022-10-09T10:17:59.975Z,101258.94
2022-10-09T10:22:07.319Z,101255.19
2022-10-09T10:26:22.234Z,101245.69
2022-10-09T10:30:26.512Z,101245.88
2022-10-09T10:34:33.666Z,101237.78
2022-10-09T10:38:43.588Z,101236.59
2022-10-09T10:43:02.269Z,101233.75
2022-10-09T10:47:14.143Z,101236.50
2022-10-09T10:51:40.063Z,101219.78
2022-10-09T10:55:52.533Z,101214.81
2022-10-09T11:00:04.141Z,101205.53
2022-10-09T11:04:29.524Z,101200.44
2022-10-09T11:08:47.552Z,101192.72
2022-10-09T11:12:59.178Z,101187.66
2022-10-09T11:17:13.531Z,101182.03
2022-10-09T11:21:27.817Z,101177.56
2022-10-09T11:25:37.693Z,101170.66
2022-10-09T11:29:44.729Z,101158.56
2022-10-09T11:33:51.247Z,101163.28
2022-10-09T11:38:00.994Z,101154.84
2022-10-09T11:42:04.543Z,101150.28
2022-10-09T11:46:12.361Z,101155.19
2022-10-09T11:50:32.514Z,101144.94
2022-10-09T11:54:36.967Z,101140.75
2022-10-09T11:58:39.850Z,101130.88
2022-10-09T12:02:44.063Z,101124.84
2022-10-09T12:06:48.678Z,101110.00
2022-10-09T12:10:56.273Z,101098.41
2022-10-09T12:14:59.756Z,101088.97
2022-10-09T12:19:05.866Z,101092.25
2022-10-09T12:23:26.334Z,101075.66
2022-10-09T12:27:35.608Z,101057.59
2022-10-09T12:31:41.803Z,101062.94
2022-10-09T12:35:47.913Z,101053.34
2022-10-09T12:39:51.267Z,101049.31
2022-10-09T12:43:57.775Z,101037.84
2022-10-09T12:48:09.551Z,101045.03
2022-10-09T12:52:16.311Z,101027.25
2022-10-09T12:56:23.951Z,101019.13
2022-10-09T13:00:28.154Z,101014.75
2022-10-09T13:04:33.145Z,101003.16
2022-10-09T13:08:38.683Z,100999.75
2022-10-09T13:12:41.510Z,100989.91
2022-10-09T13:16:47.797Z,100993.66
2022-10-09T13:21:00.327Z,100984.66
2022-10-09T13:25:03.095Z,100975.00
2022-10-09T13:29:07.607Z,100979.44
2022-10-09T13:33:15.660Z,100964.81
2022-10-09T13:37:20.253Z,100968.50
2022-10-09T13:41:25.644Z,100960.41
2022-10-09T13:45:28.634Z,100946.44
2022-10-09T13:49:32.959Z,100931.19
2022-10-09T13:53:36.092Z,100928.06
2022-10-09T13:57:39.035Z,100925.06
2022-10-09T14:01:42.398Z,100919.66
2022-10-09T14:05:46.727Z,100909.78
2022-10-09T14:09:49.418Z,100903.03
2022-10-09T14:13:52.169Z,100900.28
2022-10-09T14:17:55.004Z,100899.19
2022-10-09T14:21:59.443Z,100890.06
2022-10-09T14:26:04.242Z,100896.47
2022-10-09T14:30:08.212Z,100871.97
2022-10-09T14:34:13.777Z,100876.13
2022-10-09T14:38:18.258Z,100871.44
2022-10-09T14:42:21.037Z,100855.41
2022-10-09T14:46:24.611Z,100857.66
2022-10-09T14:50:27.630Z,100848.41
2022-10-09T14:54:31.849Z,100842.72
2022-10-09T14:58:36.830Z,100830.16
2022-10-09T15:02:39.578Z,100824.97
2022-10-09T15:06:42.598Z,100823.59
2022-10-09T15:10:46.852Z,100816.41
2022-10-09T15:14:50.010Z,100808.38
2022-10-09T15:18:54.810Z,100803.25
2022-10-09T15:22:57.963Z,100796.84
2022-10-09T15:27:02.001Z,100780.50
2022-10-09T15:31:06.908Z,100784.91
2022-10-09T15:35:10.461Z,100780.72
2022-10-09T15:39:13.567Z,100779.06
2022-10-09T15:43:19.976Z,100779.53
2022-10-09T15:47:49.534Z,100768.94
2022-10-09T15:51:45.939Z,100761.00
2022-10-09T15:55:50.978Z,100756.66
2022-10-09T15:59:55.044Z,100748.63
2022-10-09T16:03:58.379Z,100751.03
2022-10-09T16:08:01.558Z,100729.44
2022-10-09T16:12:08.137Z,100724.22
2022-10-09T16:16:15.970Z,100720.81
2022-10-09T16:20:18.984Z,100726.72
2022-10-09T16:24:22.095Z,100716.97
2022-10-09T16:28:25.256Z,100711.59
2022-10-09T16:32:30.443Z,100715.38
2022-10-09T16:36:33.525Z,100711.78
2022-10-09T16:44:59.626Z,100711.47
2022-10-09T16:49:04.943Z,100705.09
2022-10-09T16:53:08.171Z,100701.56
2022-10-09T16:57:11.050Z,100700.34
2022-10-09T17:01:14.255Z,100698.66
2022-10-09T17:05:18.937Z,100697.06
2022-10-09T17:09:21.779Z,100700.47
2022-10-09T17:13:24.466Z,100700.72
2022-10-09T17:17:27.552Z,100700.94
2022-10-09T17:21:34.516Z,100693.28
2022-10-09T17:25:39.876Z,100690.22
2022-10-09T17:29:43.028Z,100696.91
2022-10-09T17:33:48.418Z,100689.34
2022-10-09T17:37:55.128Z,100694.22
2022-10-09T17:41:58.035Z,100702.41
2022-10-09T17:46:01.495Z,100694.91
2022-10-09T17:50:04.620Z,100692.38
2022-10-09T17:54:12.304Z,100686.09
2022-10-09T17:58:15.189Z,100683.19
2022-10-09T18:02:17.898Z,100689.56
2022-10-09T18:06:25.038Z,100683.72
2022-10-09T18:10:29.427Z,100679.56
2022-10-09T18:14:32.191Z,100673.69
2022-10-09T18:18:35.431Z,100678.16
2022-10-09T18:22:38.370Z,100680.91
2022-10-09T18:26:43.277Z,100678.34
2022-10-09T18:30:46.148Z,100672.44
2022-10-09T18:34:49.634Z,100668.66
2022-10-09T18:38:54.509Z,100667.94
2022-10-09T18:42:58.746Z,100664.69
2022-10-09T18:47:01.769Z,100657.81
2022-10-09T18:51:06.269Z,100652.94
2022-10-09T18:55:11.863Z,100662.41
2022-10-09T18:59:19.222Z,100656.38
2022-10-09T19:03:22.060Z,100663.69
2022-10-09T19:07:24.910Z,100658.72
2022-10-09T19:11:28.003Z,100650.59
2022-10-09T19:15:32.138Z,100652.56
2022-10-09T19:19:34.895Z,100644.59
2022-10-09T19:23:37.668Z,100648.41
2022-10-09T19:27:40.841Z,100641.72
2022-10-09T19:31:44.923Z,100637.53
2022-10-09T19:35:49.138Z,100634.22
2022-10-09T19:39:51.877Z,100636.13
2022-10-09T19:43:54.723Z,100635.69
2022-10-09T19:47:59.273Z,100635.06
2022-10-09T19:52:02.571Z,100632.13
2022-10-09T19:56:11.003Z,100629.16
2022-10-09T20:00:14.812Z,100624.91
2022-10-09T20:04:19.603Z,100627.88
2022-10-09T20:08:23.043Z,100621.09
2022-10-09T20:12:33.290Z,100632.06
2022-10-09T20:16:37.129Z,100612.28
2022-10-09T20:20:47.008Z,100614.81
2022-10-09T20:24:52.982Z,100611.84
2022-10-09T20:28:56.397Z,100612.28
2022-10-09T20:32:59.835Z,100609.81
2022-10-09T20:37:04.197Z,100608.97
2022-10-09T20:41:09.136Z,100607.06
2022-10-09T20:45:11.986Z,100608.13
2022-10-09T20:49:15.668Z,100613.41
2022-10-09T20:53:19.882Z,100607.28
2022-10-09T20:57:22.574Z,100601.81
2022-10-09T21:01:25.863Z,100607.91
2022-10-09T21:05:28.780Z,100600.13
2022-10-09T21:09:33.487Z,100613.81
2022-10-09T21:13:36.709Z,100604.75
2022-10-09T21:17:39.452Z,100601.34
2022-10-09T21:21:43.775Z,100607.84
2022-10-09T21:25:52.951Z,100597.97
2022-10-09T21:29:55.842Z,100604.66
2022-10-09T21:34:00.410Z,100599.19
2022-10-09T21:38:05.028Z,100600.88
2022-10-09T21:42:09.258Z,100593.50
2022-10-09T21:46:11.995Z,100584.06
2022-10-09T21:50:14.932Z,100583.66
2022-10-09T21:54:18.061Z,100570.41
2022-10-09T21:58:22.312Z,100577.75
2022-10-09T22:02:25.133Z,100572.72
2022-10-09T22:06:28.005Z,100568.91
2022-10-09T22:10:30.893Z,100562.63
2022-10-09T22:14:35.152Z,100557.38
2022-10-09T22:18:38.304Z,100556.31
2022-10-09T22:22:41.228Z,100555.84
2022-10-09T22:26:44.107Z,100557.94
2022-10-09T22:30:48.298Z,100555.63
2022-10-09T22:34:51.571Z,100558.34
2022-10-09T22:38:55.721Z,100552.03
2022-10-09T22:42:58.726Z,100542.16
2022-10-09T22:47:02.808Z,100552.44
2022-10-09T22:51:06.999Z,100541.94
2022-10-09T22:55:10.399Z,100548.03
2022-10-09T22:59:15.917Z,100542.31
2022-10-09T23:03:20.080Z,100537.69
2022-10-09T23:07:22.834Z,100534.31
2022-10-09T23:11:26.630Z,100540.19
2022-10-09T23:15:29.383Z,100527.97
2022-10-09T23:19:34.872Z,100528.38
2022-10-09T23:23:37.633Z,100521.66
2022-10-09T23:27:40.343Z,100516.78
2022-10-09T23:31:43.271Z,100510.09
2022-10-09T23:35:47.339Z,100504.63
2022-10-09T23:39:50.212Z,100514.44
2022-10-09T23:43:53.036Z,100513.19
2022-10-09T23:47:55.766Z,100514.66
2022-10-09T23:51:59.955Z,100513.16
2022-10-09T23:56:02.801Z,100514.84
